sensor_id;sensor_type;location;lat;lon;timestamp;P1;durP1;ratioP1;P2;durP2;ratioP2
59273;SDS011;45044;41.572;24.730;2023-11-21T00:02:21;16.60;;;9.70;;
59273;SDS011;45044;41.572;24.730;2023-11-21T00:04:48;18.67;;;10.00;;
59273;SDS011;45044;41.572;24.730;2023-11-21T00:07:15;19.10;;;10.00;;
59273;SDS011;45044;41.572;24.730;2023-11-21T00:09:42;21.13;;;11.30;;
59273;SDS011;45044;41.572;24.730;2023-11-21T00:12:09;21.17;;;10.43;;
59273;SDS011;45044;41.572;24.730;2023-11-21T00:14:36;17.50;;;10.20;;
59273;SDS011;45044;41.572;24.730;2023-11-21T00:17:04;14.25;;;6.85;;
59273;SDS011;45044;41.572;24.730;2023-11-21T00:19:32;14.05;;;7.72;;
59273;SDS011;45044;41.572;24.730;2023-11-21T00:22:01;21.87;;;11.53;;
59273;SDS011;45044;41.572;24.730;2023-11-21T00:24:28;16.63;;;9.20;;
59273;SDS011;45044;41.572;24.730;2023-11-21T00:26:54;15.48;;;9.52;;
59273;SDS011;45044;41.572;24.730;2023-11-21T00:29:21;18.83;;;8.33;;
59273;SDS011;45044;41.572;24.730;2023-11-21T00:31:48;21.63;;;10.00;;
59273;SDS011;45044;41.572;24.730;2023-11-21T00:34:15;16.40;;;8.32;;
59273;SDS011;45044;41.572;24.730;2023-11-21T00:36:42;15.40;;;7.20;;
59273;SDS011;45044;41.572;24.730;2023-11-21T00:39:08;16.53;;;7.07;;
59273;SDS011;45044;41.572;24.730;2023-11-21T00:41:35;18.95;;;7.50;;
59273;SDS011;45044;41.572;24.730;2023-11-21T00:44:03;12.73;;;6.03;;
59273;SDS011;45044;41.572;24.730;2023-11-21T00:46:31;13.93;;;6.20;;
59273;SDS011;45044;41.572;24.730;2023-11-21T00:48:58;12.03;;;4.80;;
59273;SDS011;45044;41.572;24.730;2023-11-21T00:51:25;12.73;;;5.07;;
59273;SDS011;45044;41.572;24.730;2023-11-21T00:53:52;16.77;;;7.27;;
59273;SDS011;45044;41.572;24.730;2023-11-21T00:56:19;16.38;;;7.20;;
59273;SDS011;45044;41.572;24.730;2023-11-21T00:58:45;12.93;;;6.17;;
59273;SDS011;45044;41.572;24.730;2023-11-21T01:01:16;11.37;;;4.43;;
59273;SDS011;45044;41.572;24.730;2023-11-21T01:03:43;9.77;;;4.43;;
59273;SDS011;45044;41.572;24.730;2023-11-21T01:06:12;8.37;;;4.10;;
59273;SDS011;45044;41.572;24.730;2023-11-21T01:08:41;7.37;;;3.17;;
59273;SDS011;45044;41.572;24.730;2023-11-21T01:11:08;10.43;;;4.00;;
59273;SDS011;45044;41.572;24.730;2023-11-21T01:13:34;9.50;;;3.80;;
59273;SDS011;45044;41.572;24.730;2023-11-21T01:16:02;14.13;;;5.47;;
59273;SDS011;45044;41.572;24.730;2023-11-21T01:18:30;14.13;;;6.10;;
59273;SDS011;45044;41.572;24.730;2023-11-21T01:20:56;11.37;;;5.70;;
59273;SDS011;45044;41.572;24.730;2023-11-21T01:23:23;13.87;;;6.23;;
59273;SDS011;45044;41.572;24.730;2023-11-21T01:25:50;7.20;;;3.07;;
59273;SDS011;45044;41.572;24.730;2023-11-21T01:28:18;6.10;;;2.60;;
59273;SDS011;45044;41.572;24.730;2023-11-21T01:30:46;7.03;;;3.07;;
59273;SDS011;45044;41.572;24.730;2023-11-21T01:33:12;7.73;;;3.47;;
59273;SDS011;45044;41.572;24.730;2023-11-21T01:35:42;6.83;;;2.93;;
59273;SDS011;45044;41.572;24.730;2023-11-21T01:38:09;6.93;;;2.60;;
59273;SDS011;45044;41.572;24.730;2023-11-21T01:40:35;7.57;;;3.60;;
59273;SDS011;45044;41.572;24.730;2023-11-21T01:43:02;7.90;;;3.93;;
59273;SDS011;45044;41.572;24.730;2023-11-21T01:45:29;9.63;;;4.57;;
59273;SDS011;45044;41.572;24.730;2023-11-21T01:48:00;9.43;;;4.20;;
59273;SDS011;45044;41.572;24.730;2023-11-21T01:50:27;9.70;;;3.93;;
59273;SDS011;45044;41.572;24.730;2023-11-21T01:52:54;8.97;;;4.10;;
59273;SDS011;45044;41.572;24.730;2023-11-21T01:55:22;9.80;;;4.40;;
59273;SDS011;45044;41.572;24.730;2023-11-21T01:57:54;9.27;;;4.70;;
59273;SDS011;45044;41.572;24.730;2023-11-21T02:00:22;9.13;;;4.70;;
59273;SDS011;45044;41.572;24.730;2023-11-21T02:02:51;9.43;;;4.80;;
59273;SDS011;45044;41.572;24.730;2023-11-21T02:05:18;15.87;;;9.37;;
59273;SDS011;45044;41.572;24.730;2023-11-21T02:07:45;16.17;;;10.23;;
59273;SDS011;45044;41.572;24.730;2023-11-21T02:10:15;18.87;;;9.30;;
59273;SDS011;45044;41.572;24.730;2023-11-21T02:12:43;19.27;;;11.60;;
59273;SDS011;45044;41.572;24.730;2023-11-21T02:15:12;26.30;;;15.37;;
59273;SDS011;45044;41.572;24.730;2023-11-21T02:17:47;31.50;;;13.87;;
59273;SDS011;45044;41.572;24.730;2023-11-21T02:20:25;23.10;;;9.90;;
59273;SDS011;45044;41.572;24.730;2023-11-21T02:22:56;16.70;;;7.40;;
59273;SDS011;45044;41.572;24.730;2023-11-21T02:25:28;14.55;;;5.78;;
59273;SDS011;45044;41.572;24.730;2023-11-21T02:27:56;19.83;;;8.20;;
59273;SDS011;45044;41.572;24.730;2023-11-21T02:30:24;15.10;;;7.70;;
59273;SDS011;45044;41.572;24.730;2023-11-21T02:32:52;12.60;;;6.47;;
59273;SDS011;45044;41.572;24.730;2023-11-21T02:35:20;11.00;;;5.33;;
59273;SDS011;45044;41.572;24.730;2023-11-21T02:37:49;9.87;;;5.00;;
59273;SDS011;45044;41.572;24.730;2023-11-21T02:40:16;11.13;;;4.80;;
59273;SDS011;45044;41.572;24.730;2023-11-21T02:42:51;11.75;;;6.22;;
59273;SDS011;45044;41.572;24.730;2023-11-21T02:45:19;9.17;;;4.30;;
59273;SDS011;45044;41.572;24.730;2023-11-21T02:47:47;8.43;;;3.00;;
59273;SDS011;45044;41.572;24.730;2023-11-21T02:50:20;8.40;;;3.73;;
59273;SDS011;45044;41.572;24.730;2023-11-21T02:52:46;15.80;;;6.00;;
59273;SDS011;45044;41.572;24.730;2023-11-21T02:55:13;11.83;;;4.90;;
59273;SDS011;45044;41.572;24.730;2023-11-21T02:57:41;50.80;;;23.00;;
59273;SDS011;45044;41.572;24.730;2023-11-21T03:00:08;112.23;;;48.20;;
59273;SDS011;45044;41.572;24.730;2023-11-21T03:02:36;62.67;;;29.67;;
59273;SDS011;45044;41.572;24.730;2023-11-21T03:05:06;77.63;;;36.00;;
59273;SDS011;45044;41.572;24.730;2023-11-21T03:07:38;40.57;;;19.50;;
59273;SDS011;45044;41.572;24.730;2023-11-21T03:10:07;46.63;;;23.07;;
59273;SDS011;45044;41.572;24.730;2023-11-21T03:12:38;27.30;;;14.87;;
59273;SDS011;45044;41.572;24.730;2023-11-21T03:15:06;17.80;;;8.90;;
59273;SDS011;45044;41.572;24.730;2023-11-21T03:17:33;18.33;;;8.90;;
59273;SDS011;45044;41.572;24.730;2023-11-21T03:20:00;18.37;;;8.97;;
59273;SDS011;45044;41.572;24.730;2023-11-21T03:22:27;26.67;;;11.73;;
59273;SDS011;45044;41.572;24.730;2023-11-21T03:24:54;35.43;;;15.70;;
59273;SDS011;45044;41.572;24.730;2023-11-21T03:27:21;27.20;;;11.47;;
59273;SDS011;45044;41.572;24.730;2023-11-21T03:29:48;52.87;;;22.80;;
59273;SDS011;45044;41.572;24.730;2023-11-21T03:32:15;22.23;;;10.53;;
59273;SDS011;45044;41.572;24.730;2023-11-21T03:34:57;19.03;;;8.60;;
59273;SDS011;45044;41.572;24.730;2023-11-21T03:37:25;12.37;;;6.77;;
59273;SDS011;45044;41.572;24.730;2023-11-21T03:39:55;11.23;;;6.03;;
59273;SDS011;45044;41.572;24.730;2023-11-21T03:42:23;11.90;;;4.70;;
59273;SDS011;45044;41.572;24.730;2023-11-21T03:44:53;6.67;;;3.03;;
59273;SDS011;45044;41.572;24.730;2023-11-21T03:47:20;4.23;;;2.53;;
59273;SDS011;45044;41.572;24.730;2023-11-21T03:49:47;7.13;;;3.30;;
59273;SDS011;45044;41.572;24.730;2023-11-21T03:52:14;6.77;;;3.07;;
59273;SDS011;45044;41.572;24.730;2023-11-21T03:54:41;11.60;;;5.03;;
59273;SDS011;45044;41.572;24.730;2023-11-21T03:57:09;10.70;;;5.40;;
59273;SDS011;45044;41.572;24.730;2023-11-21T03:59:36;16.20;;;7.57;;
59273;SDS011;45044;41.572;24.730;2023-11-21T04:02:07;14.73;;;7.00;;
59273;SDS011;45044;41.572;24.730;2023-11-21T04:04:34;15.73;;;8.43;;
59273;SDS011;45044;41.572;24.730;2023-11-21T04:07:02;18.87;;;9.43;;
59273;SDS011;45044;41.572;24.730;2023-11-21T04:09:29;17.10;;;9.40;;
59273;SDS011;45044;41.572;24.730;2023-11-21T04:11:56;16.90;;;7.73;;
59273;SDS011;45044;41.572;24.730;2023-11-21T04:14:23;17.27;;;8.60;;
59273;SDS011;45044;41.572;24.730;2023-11-21T04:16:50;16.23;;;7.70;;
59273;SDS011;45044;41.572;24.730;2023-11-21T04:19:17;18.47;;;7.97;;
59273;SDS011;45044;41.572;24.730;2023-11-21T04:21:44;15.67;;;7.90;;
59273;SDS011;45044;41.572;24.730;2023-11-21T04:24:10;11.27;;;6.83;;
59273;SDS011;45044;41.572;24.730;2023-11-21T04:26:37;14.67;;;8.40;;
59273;SDS011;45044;41.572;24.730;2023-11-21T04:29:04;13.27;;;8.00;;
59273;SDS011;45044;41.572;24.730;2023-11-21T04:31:32;14.67;;;7.60;;
59273;SDS011;45044;41.572;24.730;2023-11-21T04:33:58;17.93;;;8.23;;
59273;SDS011;45044;41.572;24.730;2023-11-21T04:36:25;12.57;;;7.53;;
59273;SDS011;45044;41.572;24.730;2023-11-21T04:38:52;17.30;;;7.80;;
59273;SDS011;45044;41.572;24.730;2023-11-21T04:41:19;15.47;;;8.00;;
59273;SDS011;45044;41.572;24.730;2023-11-21T04:43:46;14.00;;;7.97;;
59273;SDS011;45044;41.572;24.730;2023-11-21T04:46:12;14.77;;;8.07;;
59273;SDS011;45044;41.572;24.730;2023-11-21T04:48:39;15.13;;;8.40;;
59273;SDS011;45044;41.572;24.730;2023-11-21T04:51:06;15.03;;;8.87;;
59273;SDS011;45044;41.572;24.730;2023-11-21T04:53:33;18.07;;;9.07;;
59273;SDS011;45044;41.572;24.730;2023-11-21T04:56:01;15.93;;;8.70;;
59273;SDS011;45044;41.572;24.730;2023-11-21T04:58:28;19.63;;;9.83;;
59273;SDS011;45044;41.572;24.730;2023-11-21T05:00:54;15.93;;;7.90;;
59273;SDS011;45044;41.572;24.730;2023-11-21T05:03:21;16.03;;;8.43;;
59273;SDS011;45044;41.572;24.730;2023-11-21T05:05:50;21.20;;;9.20;;
59273;SDS011;45044;41.572;24.730;2023-11-21T05:08:17;15.03;;;9.10;;
59273;SDS011;45044;41.572;24.730;2023-11-21T05:10:45;18.43;;;10.73;;
59273;SDS011;45044;41.572;24.730;2023-11-21T05:13:12;23.33;;;13.07;;
59273;SDS011;45044;41.572;24.730;2023-11-21T05:15:39;20.53;;;11.07;;
59273;SDS011;45044;41.572;24.730;2023-11-21T05:18:06;12.77;;;6.63;;
59273;SDS011;45044;41.572;24.730;2023-11-21T05:20:33;15.50;;;8.30;;
59273;SDS011;45044;41.572;24.730;2023-11-21T05:22:59;16.37;;;7.87;;
59273;SDS011;45044;41.572;24.730;2023-11-21T05:25:26;15.30;;;7.33;;
59273;SDS011;45044;41.572;24.730;2023-11-21T05:27:53;13.80;;;6.70;;
59273;SDS011;45044;41.572;24.730;2023-11-21T05:30:21;17.57;;;8.47;;
59273;SDS011;45044;41.572;24.730;2023-11-21T05:32:48;16.23;;;8.60;;
59273;SDS011;45044;41.572;24.730;2023-11-21T05:35:16;51.63;;;25.83;;
59273;SDS011;45044;41.572;24.730;2023-11-21T05:37:44;37.20;;;19.33;;
59273;SDS011;45044;41.572;24.730;2023-11-21T05:40:13;37.47;;;18.77;;
59273;SDS011;45044;41.572;24.730;2023-11-21T05:42:40;27.57;;;13.90;;
59273;SDS011;45044;41.572;24.730;2023-11-21T05:45:07;17.90;;;9.20;;
59273;SDS011;45044;41.572;24.730;2023-11-21T05:47:43;17.00;;;9.60;;
59273;SDS011;45044;41.572;24.730;2023-11-21T05:50:13;15.67;;;10.07;;
59273;SDS011;45044;41.572;24.730;2023-11-21T05:52:42;26.73;;;15.70;;
59273;SDS011;45044;41.572;24.730;2023-11-21T05:55:10;34.67;;;18.63;;
59273;SDS011;45044;41.572;24.730;2023-11-21T05:57:38;31.10;;;16.30;;
59273;SDS011;45044;41.572;24.730;2023-11-21T06:00:09;21.13;;;13.03;;
59273;SDS011;45044;41.572;24.730;2023-11-21T06:02:38;45.53;;;24.17;;
59273;SDS011;45044;41.572;24.730;2023-11-21T06:05:06;36.13;;;19.87;;
59273;SDS011;45044;41.572;24.730;2023-11-21T06:07:34;30.73;;;17.10;;
59273;SDS011;45044;41.572;24.730;2023-11-21T06:10:02;26.73;;;13.27;;
59273;SDS011;45044;41.572;24.730;2023-11-21T06:12:33;24.83;;;10.73;;
59273;SDS011;45044;41.572;24.730;2023-11-21T06:15:05;19.83;;;11.53;;
59273;SDS011;45044;41.572;24.730;2023-11-21T06:17:35;23.03;;;11.40;;
59273;SDS011;45044;41.572;24.730;2023-11-21T06:20:06;26.50;;;14.73;;
59273;SDS011;45044;41.572;24.730;2023-11-21T06:25:08;73.13;;;42.03;;
59273;SDS011;45044;41.572;24.730;2023-11-21T06:27:36;70.00;;;41.70;;
59273;SDS011;45044;41.572;24.730;2023-11-21T06:30:05;104.07;;;55.17;;
59273;SDS011;45044;41.572;24.730;2023-11-21T06:32:33;43.35;;;28.05;;
59273;SDS011;45044;41.572;24.730;2023-11-21T06:34:59;41.85;;;25.92;;
59273;SDS011;45044;41.572;24.730;2023-11-21T06:37:26;39.88;;;25.58;;
59273;SDS011;45044;41.572;24.730;2023-11-21T06:39:53;45.33;;;28.45;;
59273;SDS011;45044;41.572;24.730;2023-11-21T06:42:20;53.75;;;32.20;;
59273;SDS011;45044;41.572;24.730;2023-11-21T06:44:47;51.70;;;32.63;;
59273;SDS011;45044;41.572;24.730;2023-11-21T06:47:15;43.80;;;29.02;;
59273;SDS011;45044;41.572;24.730;2023-11-21T06:49:42;51.72;;;33.00;;
59273;SDS011;45044;41.572;24.730;2023-11-21T06:52:10;59.53;;;38.58;;
59273;SDS011;45044;41.572;24.730;2023-11-21T06:54:36;62.90;;;42.40;;
59273;SDS011;45044;41.572;24.730;2023-11-21T06:57:03;59.47;;;39.38;;
59273;SDS011;45044;41.572;24.730;2023-11-21T06:59:30;57.25;;;36.42;;
59273;SDS011;45044;41.572;24.730;2023-11-21T07:01:57;55.70;;;35.97;;
59273;SDS011;45044;41.572;24.730;2023-11-21T07:04:24;50.00;;;34.20;;
59273;SDS011;45044;41.572;24.730;2023-11-21T07:06:53;56.80;;;38.90;;
59273;SDS011;45044;41.572;24.730;2023-11-21T07:09:20;39.13;;;25.77;;
59273;SDS011;45044;41.572;24.730;2023-11-21T07:11:50;44.35;;;26.08;;
59273;SDS011;45044;41.572;24.730;2023-11-21T07:14:17;26.52;;;17.92;;
59273;SDS011;45044;41.572;24.730;2023-11-21T07:16:46;27.45;;;18.73;;
59273;SDS011;45044;41.572;24.730;2023-11-21T07:19:13;30.92;;;21.33;;
59273;SDS011;45044;41.572;24.730;2023-11-21T07:21:40;32.83;;;22.55;;
59273;SDS011;45044;41.572;24.730;2023-11-21T07:24:07;39.42;;;27.67;;
59273;SDS011;45044;41.572;24.730;2023-11-21T07:26:35;33.97;;;25.15;;
59273;SDS011;45044;41.572;24.730;2023-11-21T07:29:02;44.33;;;27.55;;
59273;SDS011;45044;41.572;24.730;2023-11-21T07:31:29;40.05;;;29.35;;
59273;SDS011;45044;41.572;24.730;2023-11-21T07:33:56;39.85;;;25.88;;
59273;SDS011;45044;41.572;24.730;2023-11-21T07:36:24;38.45;;;26.48;;
59273;SDS011;45044;41.572;24.730;2023-11-21T07:38:51;38.75;;;27.67;;
59273;SDS011;45044;41.572;24.730;2023-11-21T07:41:18;39.15;;;27.80;;
59273;SDS011;45044;41.572;24.730;2023-11-21T07:43:56;37.53;;;27.65;;
59273;SDS011;45044;41.572;24.730;2023-11-21T07:46:24;44.13;;;29.65;;
59273;SDS011;45044;41.572;24.730;2023-11-21T07:48:53;36.45;;;27.13;;
59273;SDS011;45044;41.572;24.730;2023-11-21T07:51:19;57.50;;;36.65;;
59273;SDS011;45044;41.572;24.730;2023-11-21T07:53:46;38.03;;;24.35;;
59273;SDS011;45044;41.572;24.730;2023-11-21T07:56:13;38.28;;;25.25;;
59273;SDS011;45044;41.572;24.730;2023-11-21T07:58:40;38.83;;;25.48;;
59273;SDS011;45044;41.572;24.730;2023-11-21T08:01:07;37.80;;;26.70;;
59273;SDS011;45044;41.572;24.730;2023-11-21T08:03:34;43.75;;;28.77;;
59273;SDS011;45044;41.572;24.730;2023-11-21T08:06:01;35.38;;;24.75;;
59273;SDS011;45044;41.572;24.730;2023-11-21T08:08:29;31.83;;;21.42;;
59273;SDS011;45044;41.572;24.730;2023-11-21T08:10:56;26.73;;;18.58;;
59273;SDS011;45044;41.572;24.730;2023-11-21T08:13:23;26.95;;;18.98;;
59273;SDS011;45044;41.572;24.730;2023-11-21T08:15:55;29.60;;;19.67;;
59273;SDS011;45044;41.572;24.730;2023-11-21T08:18:37;41.73;;;29.40;;
59273;SDS011;45044;41.572;24.730;2023-11-21T08:21:03;54.78;;;34.33;;
59273;SDS011;45044;41.572;24.730;2023-11-21T08:23:31;47.15;;;31.75;;
59273;SDS011;45044;41.572;24.730;2023-11-21T08:26:01;33.80;;;25.33;;
59273;SDS011;45044;41.572;24.730;2023-11-21T08:28:31;39.03;;;26.15;;
59273;SDS011;45044;41.572;24.730;2023-11-21T08:30:58;32.42;;;23.65;;
59273;SDS011;45044;41.572;24.730;2023-11-21T08:33:26;27.55;;;18.48;;
59273;SDS011;45044;41.572;24.730;2023-11-21T08:35:54;25.75;;;18.90;;
59273;SDS011;45044;41.572;24.730;2023-11-21T08:38:21;21.48;;;14.45;;
59273;SDS011;45044;41.572;24.730;2023-11-21T08:40:48;23.45;;;16.75;;
59273;SDS011;45044;41.572;24.730;2023-11-21T08:43:15;47.28;;;29.55;;
59273;SDS011;45044;41.572;24.730;2023-11-21T08:45:43;25.90;;;17.40;;
59273;SDS011;45044;41.572;24.730;2023-11-21T08:48:09;17.15;;;10.65;;
59273;SDS011;45044;41.572;24.730;2023-11-21T08:50:38;21.75;;;13.35;;
59273;SDS011;45044;41.572;24.730;2023-11-21T08:53:04;23.85;;;14.65;;
59273;SDS011;45044;41.572;24.730;2023-11-21T08:55:32;20.58;;;14.82;;
59273;SDS011;45044;41.572;24.730;2023-11-21T08:58:04;21.05;;;12.95;;
59273;SDS011;45044;41.572;24.730;2023-11-21T09:00:32;33.80;;;20.15;;
59273;SDS011;45044;41.572;24.730;2023-11-21T09:03:00;31.20;;;18.40;;
59273;SDS011;45044;41.572;24.730;2023-11-21T09:05:28;27.02;;;17.30;;
59273;SDS011;45044;41.572;24.730;2023-11-21T09:07:55;38.95;;;23.75;;
59273;SDS011;45044;41.572;24.730;2023-11-21T09:10:22;24.52;;;16.08;;
59273;SDS011;45044;41.572;24.730;2023-11-21T09:12:50;24.95;;;16.10;;
59273;SDS011;45044;41.572;24.730;2023-11-21T09:15:22;21.85;;;14.45;;
59273;SDS011;45044;41.572;24.730;2023-11-21T09:17:49;22.75;;;13.13;;
59273;SDS011;45044;41.572;24.730;2023-11-21T09:20:16;19.90;;;12.30;;
59273;SDS011;45044;41.572;24.730;2023-11-21T09:22:42;13.70;;;8.98;;
59273;SDS011;45044;41.572;24.730;2023-11-21T09:25:11;20.30;;;12.93;;
59273;SDS011;45044;41.572;24.730;2023-11-21T09:27:39;19.15;;;11.70;;
59273;SDS011;45044;41.572;24.730;2023-11-21T09:30:09;21.70;;;13.95;;
59273;SDS011;45044;41.572;24.730;2023-11-21T09:32:39;14.10;;;9.68;;
59273;SDS011;45044;41.572;24.730;2023-11-21T09:35:07;16.65;;;10.02;;
59273;SDS011;45044;41.572;24.730;2023-11-21T09:37:35;16.95;;;10.77;;
59273;SDS011;45044;41.572;24.730;2023-11-21T09:40:04;17.85;;;11.25;;
59273;SDS011;45044;41.572;24.730;2023-11-21T09:42:39;22.85;;;14.45;;
59273;SDS011;45044;41.572;24.730;2023-11-21T09:47:47;26.58;;;15.25;;
59273;SDS011;45044;41.572;24.730;2023-11-21T09:50:16;10.10;;;6.45;;
59273;SDS011;45044;41.572;24.730;2023-11-21T09:55:25;12.07;;;6.18;;
59273;SDS011;45044;41.572;24.730;2023-11-21T09:57:59;6.80;;;3.92;;
59273;SDS011;45044;41.572;24.730;2023-11-21T10:00:27;8.40;;;4.00;;
59273;SDS011;45044;41.572;24.730;2023-11-21T10:02:56;4.70;;;2.58;;
59273;SDS011;45044;41.572;24.730;2023-11-21T10:05:24;8.18;;;4.25;;
59273;SDS011;45044;41.572;24.730;2023-11-21T10:07:55;5.15;;;2.45;;
59273;SDS011;45044;41.572;24.730;2023-11-21T10:10:24;4.22;;;2.30;;
59273;SDS011;45044;41.572;24.730;2023-11-21T10:12:55;4.50;;;2.22;;
59273;SDS011;45044;41.572;24.730;2023-11-21T10:15:23;1.92;;;1.10;;
59273;SDS011;45044;41.572;24.730;2023-11-21T10:17:55;4.13;;;1.65;;
59273;SDS011;45044;41.572;24.730;2023-11-21T10:20:23;4.05;;;1.70;;
59273;SDS011;45044;41.572;24.730;2023-11-21T10:22:51;7.93;;;2.85;;
59273;SDS011;45044;41.572;24.730;2023-11-21T10:25:17;9.80;;;5.10;;
59273;SDS011;45044;41.572;24.730;2023-11-21T10:27:47;5.57;;;2.22;;
59273;SDS011;45044;41.572;24.730;2023-11-21T10:30:18;3.35;;;1.88;;
59273;SDS011;45044;41.572;24.730;2023-11-21T10:32:45;2.65;;;1.10;;
59273;SDS011;45044;41.572;24.730;2023-11-21T10:35:11;10.95;;;6.80;;
59273;SDS011;45044;41.572;24.730;2023-11-21T10:37:38;3.67;;;1.33;;
59273;SDS011;45044;41.572;24.730;2023-11-21T10:40:07;2.75;;;1.20;;
59273;SDS011;45044;41.572;24.730;2023-11-21T10:42:39;6.03;;;2.63;;
59273;SDS011;45044;41.572;24.730;2023-11-21T10:45:07;3.95;;;1.60;;
59273;SDS011;45044;41.572;24.730;2023-11-21T10:47:41;2.83;;;1.50;;
59273;SDS011;45044;41.572;24.730;2023-11-21T10:50:09;3.60;;;1.60;;
59273;SDS011;45044;41.572;24.730;2023-11-21T10:52:39;5.38;;;2.55;;
59273;SDS011;45044;41.572;24.730;2023-11-21T10:55:19;3.10;;;1.40;;
59273;SDS011;45044;41.572;24.730;2023-11-21T10:57:48;3.58;;;1.65;;
59273;SDS011;45044;41.572;24.730;2023-11-21T11:00:17;3.30;;;1.20;;
59273;SDS011;45044;41.572;24.730;2023-11-21T11:02:48;2.08;;;1.05;;
59273;SDS011;45044;41.572;24.730;2023-11-21T11:05:19;4.80;;;2.03;;
59273;SDS011;45044;41.572;24.730;2023-11-21T11:07:50;1.48;;;0.85;;
59273;SDS011;45044;41.572;24.730;2023-11-21T11:10:26;2.15;;;1.27;;
59273;SDS011;45044;41.572;24.730;2023-11-21T11:12:56;2.20;;;1.20;;
59273;SDS011;45044;41.572;24.730;2023-11-21T11:15:24;3.90;;;2.00;;
59273;SDS011;45044;41.572;24.730;2023-11-21T11:17:52;4.13;;;1.70;;
59273;SDS011;45044;41.572;24.730;2023-11-21T11:20:27;2.20;;;1.20;;
59273;SDS011;45044;41.572;24.730;2023-11-21T11:28:29;2.20;;;1.20;;
59273;SDS011;45044;41.572;24.730;2023-11-21T11:32:07;2.90;;;1.20;;
59273;SDS011;45044;41.572;24.730;2023-11-21T11:34:26;7.25;;;3.30;;
59273;SDS011;45044;41.572;24.730;2023-11-21T11:37:03;2.85;;;1.30;;
59273;SDS011;45044;41.572;24.730;2023-11-21T11:39:37;1.50;;;0.63;;
59273;SDS011;45044;41.572;24.730;2023-11-21T11:42:08;6.70;;;3.20;;
59273;SDS011;45044;41.572;24.730;2023-11-21T11:47:13;7.55;;;2.95;;
59273;SDS011;45044;41.572;24.730;2023-11-21T11:55:12;6.68;;;2.50;;
59273;SDS011;45044;41.572;24.730;2023-11-21T11:57:54;4.95;;;1.77;;
59273;SDS011;45044;41.572;24.730;2023-11-21T12:03:02;1.63;;;0.57;;
59273;SDS011;45044;41.572;24.730;2023-11-21T12:05:31;4.10;;;1.83;;
59273;SDS011;45044;41.572;24.730;2023-11-21T12:08:00;1.95;;;0.52;;
59273;SDS011;45044;41.572;24.730;2023-11-21T12:10:30;8.30;;;3.58;;
59273;SDS011;45044;41.572;24.730;2023-11-21T12:13:02;8.65;;;3.70;;
59273;SDS011;45044;41.572;24.730;2023-11-21T12:15:34;1.30;;;0.77;;
59273;SDS011;45044;41.572;24.730;2023-11-21T12:18:02;1.25;;;0.70;;
59273;SDS011;45044;41.572;24.730;2023-11-21T12:20:30;0.93;;;0.60;;
59273;SDS011;45044;41.572;24.730;2023-11-21T12:22:58;3.90;;;1.30;;
59273;SDS011;45044;41.572;24.730;2023-11-21T12:25:27;2.63;;;1.42;;
59273;SDS011;45044;41.572;24.730;2023-11-21T12:28:01;3.55;;;1.48;;
59273;SDS011;45044;41.572;24.730;2023-11-21T12:30:30;2.58;;;1.20;;
59273;SDS011;45044;41.572;24.730;2023-11-21T12:32:58;2.60;;;1.30;;
59273;SDS011;45044;41.572;24.730;2023-11-21T12:35:33;3.50;;;1.40;;
59273;SDS011;45044;41.572;24.730;2023-11-21T12:38:04;4.10;;;2.15;;
59273;SDS011;45044;41.572;24.730;2023-11-21T12:40:32;6.13;;;2.30;;
59273;SDS011;45044;41.572;24.730;2023-11-21T12:42:59;2.08;;;1.00;;
59273;SDS011;45044;41.572;24.730;2023-11-21T12:45:28;2.17;;;1.10;;
59273;SDS011;45044;41.572;24.730;2023-11-21T12:47:59;2.88;;;1.30;;
59273;SDS011;45044;41.572;24.730;2023-11-21T12:50:29;1.48;;;0.65;;
59273;SDS011;45044;41.572;24.730;2023-11-21T12:53:01;2.45;;;1.13;;
59273;SDS011;45044;41.572;24.730;2023-11-21T12:55:32;2.75;;;1.30;;
59273;SDS011;45044;41.572;24.730;2023-11-21T12:58:05;1.67;;;0.90;;
59273;SDS011;45044;41.572;24.730;2023-11-21T13:00:43;1.77;;;0.82;;
59273;SDS011;45044;41.572;24.730;2023-11-21T13:03:12;1.60;;;1.15;;
59273;SDS011;45044;41.572;24.730;2023-11-21T13:05:46;1.90;;;1.05;;
59273;SDS011;45044;41.572;24.730;2023-11-21T13:08:19;5.68;;;2.20;;
59273;SDS011;45044;41.572;24.730;2023-11-21T13:10:52;5.65;;;2.20;;
59273;SDS011;45044;41.572;24.730;2023-11-21T13:13:22;2.40;;;1.52;;
59273;SDS011;45044;41.572;24.730;2023-11-21T13:15:52;3.80;;;1.95;;
59273;SDS011;45044;41.572;24.730;2023-11-21T13:18:24;4.20;;;1.90;;
59273;SDS011;45044;41.572;24.730;2023-11-21T13:20:57;1.42;;;0.90;;
59273;SDS011;45044;41.572;24.730;2023-11-21T13:23:26;2.65;;;1.40;;
59273;SDS011;45044;41.572;24.730;2023-11-21T13:25:53;1.65;;;0.75;;
59273;SDS011;45044;41.572;24.730;2023-11-21T13:28:31;9.57;;;5.28;;
59273;SDS011;45044;41.572;24.730;2023-11-21T13:31:00;4.72;;;2.63;;
59273;SDS011;45044;41.572;24.730;2023-11-21T13:33:48;4.32;;;2.20;;
59273;SDS011;45044;41.572;24.730;2023-11-21T13:36:23;7.25;;;3.50;;
59273;SDS011;45044;41.572;24.730;2023-11-21T13:38:51;1.60;;;1.02;;
59273;SDS011;45044;41.572;24.730;2023-11-21T13:41:20;2.63;;;1.60;;
59273;SDS011;45044;41.572;24.730;2023-11-21T13:43:54;22.40;;;8.48;;
59273;SDS011;45044;41.572;24.730;2023-11-21T13:46:30;10.82;;;5.20;;
59273;SDS011;45044;41.572;24.730;2023-11-21T13:49:04;3.45;;;1.88;;
59273;SDS011;45044;41.572;24.730;2023-11-21T13:51:36;7.95;;;2.97;;
59273;SDS011;45044;41.572;24.730;2023-11-21T13:54:11;3.45;;;2.00;;
59273;SDS011;45044;41.572;24.730;2023-11-21T13:56:38;3.80;;;1.90;;
59273;SDS011;45044;41.572;24.730;2023-11-21T13:59:06;4.32;;;2.35;;
59273;SDS011;45044;41.572;24.730;2023-11-21T14:01:47;4.07;;;2.92;;
59273;SDS011;45044;41.572;24.730;2023-11-21T14:04:22;4.93;;;2.35;;
59273;SDS011;45044;41.572;24.730;2023-11-21T14:07:06;7.22;;;3.40;;
59273;SDS011;45044;41.572;24.730;2023-11-21T14:09:49;6.60;;;2.50;;
59273;SDS011;45044;41.572;24.730;2023-11-21T14:12:16;4.75;;;2.20;;
59273;SDS011;45044;41.572;24.730;2023-11-21T14:14:43;8.48;;;6.55;;
59273;SDS011;45044;41.572;24.730;2023-11-21T14:17:11;9.73;;;5.28;;
59273;SDS011;45044;41.572;24.730;2023-11-21T14:19:38;2.40;;;1.35;;
59273;SDS011;45044;41.572;24.730;2023-11-21T14:22:10;5.10;;;2.55;;
59273;SDS011;45044;41.572;24.730;2023-11-21T14:24:37;6.20;;;2.90;;
59273;SDS011;45044;41.572;24.730;2023-11-21T14:27:04;4.50;;;1.70;;
59273;SDS011;45044;41.572;24.730;2023-11-21T14:29:31;8.70;;;4.30;;
59273;SDS011;45044;41.572;24.730;2023-11-21T14:32:03;14.25;;;7.60;;
59273;SDS011;45044;41.572;24.730;2023-11-21T14:34:30;9.55;;;4.93;;
59273;SDS011;45044;41.572;24.730;2023-11-21T14:36:57;21.83;;;12.20;;
59273;SDS011;45044;41.572;24.730;2023-11-21T14:39:24;18.05;;;8.40;;
59273;SDS011;45044;41.572;24.730;2023-11-21T14:41:54;17.58;;;9.85;;
59273;SDS011;45044;41.572;24.730;2023-11-21T14:44:25;23.95;;;13.93;;
59273;SDS011;45044;41.572;24.730;2023-11-21T14:47:05;9.98;;;4.85;;
59273;SDS011;45044;41.572;24.730;2023-11-21T14:49:39;11.90;;;6.53;;
59273;SDS011;45044;41.572;24.730;2023-11-21T14:52:19;5.45;;;2.22;;
59273;SDS011;45044;41.572;24.730;2023-11-21T14:55:12;5.70;;;2.35;;
59273;SDS011;45044;41.572;24.730;2023-11-21T14:57:51;8.32;;;3.58;;